Time;durP1;ratioP1;P1;durP2;ratioP2;P2;SDS_P1;SDS_P2;PMS_P1;PMS_P2;Temp;Humidity;BMP_temperature;BMP_pressure;BME280_temperature;BME280_humidity;BME280_pressure;Samples;Min_cycle;Max_cycle;Signal;HPM_P1;HPM_P2
2022/03/29 00:00:36;;;;;;;12.63;7.85;;;10.10;51.00;;;;;;5054271;28;20021;-80
2022/03/29 00:03:02;;;;;;;12.27;8.20;;;10.10;51.20;;;;;;5047031;28;20029;-81
2022/03/29 00:05:28;;;;;;;11.13;7.38;;;10.00;51.30;;;;;;5043457;28;20053;-80
2022/03/29 00:07:54;;;;;;;11.95;7.20;;;10.00;51.50;;;;;;5056266;28;20029;-80
2022/03/29 00:10:20;;;;;;;17.08;9.18;;;10.00;51.70;;;;;;5061422;28;20025;-80
2022/03/29 00:12:46;;;;;;;14.30;8.43;;;10.00;51.90;;;;;;5060360;28;20080;-81
2022/03/29 00:15:12;;;;;;;16.13;8.77;;;9.90;52.20;;;;;;5063191;28;20032;-79
2022/03/29 00:17:38;;;;;;;13.85;8.40;;;9.80;52.30;;;;;;5060599;28;20021;-80
2022/03/29 00:20:04;;;;;;;14.13;8.63;;;9.80;52.50;;;;;;5067447;28;20024;-79
2022/03/29 00:22:30;;;;;;;12.43;7.88;;;9.80;52.70;;;;;;5076390;28;20056;-79
2022/03/29 00:24:56;;;;;;;13.63;7.68;;;9.70;52.80;;;;;;5076124;28;20021;-80
2022/03/29 00:27:21;;;;;;;14.52;8.65;;;9.70;53.00;;;;;;5075770;28;20025;-80
2022/03/29 00:29:47;;;;;;;12.85;8.23;;;9.70;53.10;;;;;;5073329;28;20024;-79
2022/03/29 00:32:13;;;;;;;12.90;7.78;;;9.60;53.20;;;;;;5075790;28;20033;-79
2022/03/29 00:34:40;;;;;;;11.02;6.78;;;9.60;53.40;;;;;;5070675;28;20093;-79
2022/03/29 00:37:06;;;;;;;16.15;8.18;;;9.60;53.50;;;;;;5073059;28;20032;-79
2022/03/29 00:39:33;;;;;;;15.15;8.98;;;9.60;53.70;;;;;;5077055;23;21793;-82
2022/03/29 00:42:00;;;;;;;12.73;8.43;;;9.60;53.90;;;;;;5041677;28;20093;-82
2022/03/29 00:44:36;;;;;;;13.65;8.30;;;9.50;54.00;;;;;;5034518;28;20029;-81
2022/03/29 00:47:02;;;;;;;11.93;7.53;;;9.50;54.10;;;;;;5039243;28;20037;-81
2022/03/29 00:49:28;;;;;;;13.02;7.82;;;9.50;54.30;;;;;;5037882;28;20021;-81
2022/03/29 00:51:58;;;;;;;14.77;8.57;;;9.50;54.50;;;;;;5038674;28;20074;-81
2022/03/29 00:54:28;;;;;;;14.80;9.10;;;9.40;54.60;;;;;;5039324;28;20183;-82
2022/03/29 00:56:57;;;;;;;14.15;8.23;;;9.40;54.70;;;;;;5037487;28;20029;-81
2022/03/29 00:59:23;;;;;;;13.85;9.05;;;9.40;54.90;;;;;;5037737;28;20497;-81
2022/03/29 01:01:49;;;;;;;14.65;8.77;;;9.40;55.00;;;;;;5034161;28;20030;-82
2022/03/29 01:04:15;;;;;;;18.17;9.50;;;9.30;55.10;;;;;;5018893;28;20027;-82
2022/03/29 01:06:43;;;;;;;12.27;8.02;;;9.30;55.10;;;;;;5019149;28;20030;-82
2022/03/29 01:09:09;;;;;;;14.70;7.75;;;9.30;55.10;;;;;;5025505;28;20077;-82
2022/03/29 01:11:36;;;;;;;16.08;8.93;;;9.30;55.30;;;;;;5040492;28;20022;-81
2022/03/29 01:14:03;;;;;;;12.20;7.68;;;9.30;55.50;;;;;;5039802;28;20089;-81
2022/03/29 01:19:19;;;;;;;12.93;7.95;;;9.20;55.70;;;;;;5044759;28;20025;-81
2022/03/29 01:21:59;;;;;;;13.63;8.23;;;9.20;55.80;;;;;;5030434;28;20039;-81
2022/03/29 01:24:25;;;;;;;12.38;7.18;;;9.20;56.00;;;;;;5048589;28;20017;-82
2022/03/29 01:26:53;;;;;;;14.00;7.60;;;9.20;56.00;;;;;;5052329;28;20476;-82
2022/03/29 01:29:20;;;;;;;12.45;8.13;;;9.20;56.20;;;;;;5052807;28;20025;-81
2022/03/29 01:31:47;;;;;;;12.70;7.75;;;9.10;56.30;;;;;;5045584;28;20029;-81
2022/03/29 01:34:14;;;;;;;13.50;8.48;;;9.10;56.40;;;;;;5031832;28;20018;-81
2022/03/29 01:36:39;;;;;;;12.35;8.32;;;9.10;56.50;;;;;;5033330;28;20033;-81
2022/03/29 01:39:05;;;;;;;15.32;9.00;;;9.10;56.60;;;;;;5029647;28;20403;-80
2022/03/29 01:41:31;;;;;;;16.05;7.78;;;9.00;56.70;;;;;;5038365;28;20168;-81
2022/03/29 01:43:57;;;;;;;15.13;8.10;;;9.00;56.80;;;;;;5049256;28;20071;-82
2022/03/29 01:46:25;;;;;;;12.82;7.45;;;9.00;56.90;;;;;;5053827;28;20088;-81
2022/03/29 01:48:50;;;;;;;13.68;8.40;;;9.00;56.90;;;;;;5047394;28;20025;-81
2022/03/29 01:51:16;;;;;;;13.02;7.38;;;9.00;57.50;;;;;;5048123;28;20040;-82
2022/03/29 01:53:42;;;;;;;12.32;7.95;;;9.00;57.00;;;;;;5046803;28;20164;-82
2022/03/29 01:56:08;;;;;;;15.68;7.88;;;9.00;57.00;;;;;;5046604;28;20029;-81
2022/03/29 01:58:34;;;;;;;11.23;7.40;;;9.00;57.10;;;;;;5046652;28;20041;-81
2022/03/29 02:00:59;;;;;;;11.63;7.75;;;9.00;57.20;;;;;;5021890;28;20105;-82
2022/03/29 02:03:25;;;;;;;14.32;7.70;;;9.00;57.30;;;;;;5040632;28;20030;-82
2022/03/29 02:05:51;;;;;;;16.42;8.73;;;9.00;57.40;;;;;;5042917;28;20036;-81
2022/03/29 02:08:17;;;;;;;11.30;7.68;;;8.90;57.50;;;;;;5042205;28;20030;-82
2022/03/29 02:10:43;;;;;;;11.48;6.82;;;8.90;57.60;;;;;;5041537;28;20033;-81
2022/03/29 02:13:09;;;;;;;15.18;8.27;;;8.90;57.60;;;;;;5044755;28;20076;-82
2022/03/29 02:15:37;;;;;;;13.50;7.80;;;8.90;57.70;;;;;;5057516;28;20028;-81
2022/03/29 02:18:03;;;;;;;15.60;8.70;;;8.90;57.80;;;;;;5056804;28;20033;-80
2022/03/29 02:20:28;;;;;;;17.58;8.75;;;8.80;57.90;;;;;;5057808;28;20060;-80
2022/03/29 02:22:54;;;;;;;16.50;9.40;;;8.80;58.10;;;;;;5032213;28;20029;-80
2022/03/29 02:25:21;;;;;;;18.08;8.68;;;8.80;58.10;;;;;;5042361;28;20044;-80
2022/03/29 02:27:47;;;;;;;15.65;9.02;;;8.80;58.20;;;;;;5040057;28;20020;-80
2022/03/29 02:30:15;;;;;;;12.25;7.93;;;8.80;58.20;;;;;;5037951;28;20402;-82
2022/03/29 02:32:41;;;;;;;13.38;7.47;;;8.80;58.20;;;;;;5024015;28;20033;-81
2022/03/29 02:35:08;;;;;;;13.07;8.65;;;8.80;58.20;;;;;;5040059;28;20080;-82
2022/03/29 02:37:34;;;;;;;13.38;7.80;;;8.80;58.20;;;;;;5041308;28;20025;-81
2022/03/29 02:40:00;;;;;;;15.35;8.35;;;8.70;58.20;;;;;;5023570;28;20060;-82
2022/03/29 02:42:25;;;;;;;14.88;7.72;;;8.70;58.30;;;;;;5046238;28;20037;-80
2022/03/29 02:44:51;;;;;;;12.57;7.70;;;8.70;58.40;;;;;;5042075;28;20022;-83
2022/03/29 02:47:17;;;;;;;13.57;8.43;;;8.70;58.50;;;;;;5041029;28;20026;-81
2022/03/29 02:49:42;;;;;;;12.52;8.00;;;8.70;58.50;;;;;;5041130;28;20033;-82
2022/03/29 02:52:10;;;;;;;14.57;8.00;;;8.70;58.60;;;;;;5042578;28;20445;-82
2022/03/29 02:54:35;;;;;;;12.02;8.13;;;8.70;58.60;;;;;;5045851;28;20089;-80
2022/03/29 02:57:01;;;;;;;13.93;8.75;;;8.70;58.60;;;;;;5046387;28;20033;-81
2022/03/29 02:59:27;;;;;;;14.23;8.02;;;8.70;58.60;;;;;;5046338;28;20059;-81
2022/03/29 03:01:55;;;;;;;13.82;8.15;;;8.70;58.70;;;;;;5028250;28;20041;-82
2022/03/29 03:04:21;;;;;;;12.57;7.28;;;8.60;58.80;;;;;;5046335;28;20080;-80
2022/03/29 03:06:47;;;;;;;14.43;7.78;;;8.60;58.80;;;;;;5046837;28;20026;-80
2022/03/29 03:09:12;;;;;;;13.88;8.40;;;8.60;58.90;;;;;;5044538;28;20025;-81
2022/03/29 03:11:38;;;;;;;13.02;7.75;;;8.60;59.00;;;;;;5042627;28;20048;-82
2022/03/29 03:14:04;;;;;;;13.50;7.28;;;8.60;59.10;;;;;;5039661;28;20030;-82
2022/03/29 03:16:30;;;;;;;17.05;9.13;;;8.60;59.00;;;;;;5040086;28;20033;-82
2022/03/29 03:18:56;;;;;;;11.98;7.43;;;8.60;59.00;;;;;;5040247;28;20025;-81
2022/03/29 03:21:21;;;;;;;12.27;7.20;;;8.60;59.10;;;;;;5047662;28;20108;-81
2022/03/29 03:23:47;;;;;;;14.13;7.65;;;8.60;59.20;;;;;;5041426;28;20129;-82
2022/03/29 03:26:16;;;;;;;13.48;7.55;;;8.50;59.20;;;;;;5039863;28;20044;-80
2022/03/29 03:28:42;;;;;;;14.20;8.50;;;8.50;59.30;;;;;;5042155;28;20140;-81
2022/03/29 03:31:08;;;;;;;12.40;7.65;;;8.50;60.00;;;;;;5043452;28;20044;-81
2022/03/29 03:33:34;;;;;;;13.35;7.80;;;8.50;59.50;;;;;;5036574;28;20021;-82
2022/03/29 03:35:59;;;;;;;15.07;8.48;;;8.50;59.70;;;;;;5038649;28;20040;-81
2022/03/29 03:38:25;;;;;;;16.55;8.52;;;8.50;59.70;;;;;;5038476;28;20036;-81
2022/03/29 03:40:51;;;;;;;13.65;8.30;;;8.50;59.70;;;;;;5039661;28;20100;-81
2022/03/29 03:43:16;;;;;;;12.80;8.00;;;8.50;59.60;;;;;;5028559;28;20355;-81
2022/03/29 03:45:42;;;;;;;12.68;7.72;;;8.50;59.70;;;;;;5038904;28;20037;-82
2022/03/29 03:48:11;;;;;;;11.85;7.63;;;8.50;59.70;;;;;;5039036;28;20018;-82
2022/03/29 03:50:37;;;;;;;12.25;7.65;;;8.50;59.70;;;;;;5050206;28;20022;-80
2022/03/29 03:53:02;;;;;;;13.13;8.10;;;8.50;59.70;;;;;;5050294;28;20025;-81
2022/03/29 03:55:31;;;;;;;10.73;7.32;;;8.50;59.70;;;;;;5032636;28;20037;-83
2022/03/29 03:57:57;;;;;;;12.68;8.02;;;8.50;59.60;;;;;;5027159;28;20025;-79
2022/03/29 04:00:24;;;;;;;12.70;7.75;;;8.50;59.60;;;;;;5038136;28;20120;-79
2022/03/29 04:02:50;;;;;;;11.07;6.80;;;8.50;59.50;;;;;;5029185;28;20080;-81
2022/03/29 04:05:16;;;;;;;17.05;8.65;;;8.50;59.50;;;;;;5040275;28;20090;-80
2022/03/29 04:07:42;;;;;;;12.57;8.30;;;8.50;59.50;;;;;;5039321;28;20030;-80
2022/03/29 04:10:09;;;;;;;13.07;7.93;;;8.50;59.40;;;;;;5040882;28;20025;-81
2022/03/29 04:12:36;;;;;;;12.50;8.02;;;8.60;59.40;;;;;;5040883;28;20079;-79
2022/03/29 04:15:02;;;;;;;11.30;7.85;;;8.60;59.30;;;;;;5042207;28;20445;-81
2022/03/29 04:17:28;;;;;;;11.80;7.57;;;8.50;59.20;;;;;;5038449;28;20026;-81
2022/03/29 04:19:55;;;;;;;14.10;8.00;;;8.60;59.20;;;;;;5037685;28;20048;-80
2022/03/29 04:22:20;;;;;;;11.00;7.65;;;8.50;59.10;;;;;;5043605;28;20029;-80
2022/03/29 04:24:47;;;;;;;13.18;7.63;;;8.50;59.20;;;;;;5051115;28;20543;-81
2022/03/29 04:27:12;;;;;;;13.02;8.40;;;8.50;59.30;;;;;;5049848;28;20108;-80
2022/03/29 04:29:38;;;;;;;15.60;8.25;;;8.50;59.40;;;;;;5048044;28;20089;-81
2022/03/29 04:32:04;;;;;;;14.82;9.20;;;8.50;59.40;;;;;;5025447;28;20539;-82
2022/03/29 04:34:30;;;;;;;14.30;8.18;;;8.40;59.50;;;;;;5014909;28;20044;-82
2022/03/29 04:36:58;;;;;;;13.77;8.65;;;8.40;59.60;;;;;;5040321;28;20029;-81
2022/03/29 04:39:25;;;;;;;14.30;8.20;;;8.40;59.70;;;;;;5040891;28;20552;-81
2022/03/29 04:41:51;;;;;;;15.30;8.40;;;8.40;59.70;;;;;;5040113;28;20110;-80
2022/03/29 04:44:17;;;;;;;13.82;7.95;;;8.40;59.70;;;;;;5039508;28;20082;-81
2022/03/29 04:46:43;;;;;;;13.93;8.25;;;8.40;59.70;;;;;;5040482;28;20078;-82
2022/03/29 04:49:08;;;;;;;14.07;8.15;;;8.40;59.60;;;;;;5039385;28;20049;-81
2022/03/29 04:51:35;;;;;;;13.00;7.80;;;8.50;59.70;;;;;;5041401;28;20021;-81
2022/03/29 04:54:01;;;;;;;13.40;7.95;;;8.50;59.70;;;;;;5043119;28;20108;-82
2022/03/29 04:56:28;;;;;;;16.10;8.05;;;8.50;59.60;;;;;;5042765;28;20037;-81
2022/03/29 04:58:53;;;;;;;12.35;7.28;;;8.50;59.60;;;;;;5042876;28;20063;-81
2022/03/29 05:01:20;;;;;;;10.95;6.60;;;8.50;59.50;;;;;;5042397;28;20025;-81
2022/03/29 05:03:46;;;;;;;12.50;7.47;;;8.50;59.50;;;;;;5023763;28;20022;-80
2022/03/29 05:06:12;;;;;;;11.40;6.78;;;8.50;60.20;;;;;;5043640;28;20445;-82
2022/03/29 05:08:37;;;;;;;10.85;7.25;;;8.50;59.60;;;;;;5053853;28;20049;-79
2022/03/29 05:11:03;;;;;;;11.75;7.13;;;8.50;59.60;;;;;;5055184;28;20044;-79
2022/03/29 05:13:29;;;;;;;10.60;6.88;;;8.60;59.70;;;;;;5056320;28;20041;-78
2022/03/29 05:15:55;;;;;;;12.45;7.47;;;8.60;59.70;;;;;;5046692;28;20033;-80
2022/03/29 05:18:21;;;;;;;9.57;6.35;;;8.60;59.70;;;;;;5042284;28;20018;-80
2022/03/29 05:20:47;;;;;;;12.70;7.13;;;8.60;59.60;;;;;;5042169;28;20025;-80
2022/03/29 05:23:15;;;;;;;11.18;6.80;;;8.70;59.50;;;;;;5042482;28;20514;-80
2022/03/29 05:25:41;;;;;;;11.00;6.53;;;8.70;59.40;;;;;;5044152;28;20030;-79
2022/03/29 05:28:09;;;;;;;11.73;7.13;;;8.70;59.40;;;;;;5049984;28;20048;-79
2022/03/29 05:30:35;;;;;;;12.63;7.60;;;8.70;59.30;;;;;;5042778;28;20010;-79
2022/03/29 05:33:01;;;;;;;12.13;7.40;;;8.70;59.30;;;;;;5034475;28;20024;-82
2022/03/29 05:35:32;;;;;;;13.63;7.55;;;8.80;59.30;;;;;;5012018;28;20048;-79
2022/03/29 05:38:00;;;;;;;15.27;7.53;;;8.80;59.10;;;;;;5028851;28;20060;-79
2022/03/29 05:40:28;;;;;;;11.48;7.53;;;8.90;59.00;;;;;;5047458;28;20067;-80
2022/03/29 05:42:55;;;;;;;11.50;7.10;;;9.00;59.50;;;;;;5047285;28;20463;-79
2022/03/29 05:45:21;;;;;;;11.20;7.20;;;9.00;58.80;;;;;;5046686;28;20125;-81
2022/03/29 05:50:31;;;;;;;13.52;7.88;;;9.10;58.40;;;;;;5042927;28;20036;-80
2022/03/29 05:52:58;;;;;;;11.82;8.05;;;9.20;58.10;;;;;;5042685;28;20045;-80
2022/03/29 05:55:24;;;;;;;12.35;7.22;;;9.30;58.00;;;;;;5031243;28;20036;-80
2022/03/29 05:57:52;;;;;;;13.93;7.97;;;9.40;57.80;;;;;;5039376;28;20030;-79
2022/03/29 06:00:21;;;;;;;14.55;8.63;;;9.40;57.70;;;;;;5051690;28;20024;-80
2022/03/29 06:02:46;;;;;;;11.43;7.53;;;9.40;57.60;;;;;;5036827;28;20103;-79
2022/03/29 06:05:12;;;;;;;11.88;7.25;;;9.40;57.50;;;;;;5011303;28;20042;-81
2022/03/29 06:07:38;;;;;;;15.88;7.05;;;9.50;57.40;;;;;;5035041;28;20108;-81
2022/03/29 06:10:05;;;;;;;11.07;6.95;;;9.50;57.20;;;;;;5044347;28;20044;-80
2022/03/29 06:12:31;;;;;;;13.27;7.63;;;9.60;57.10;;;;;;5043108;28;20514;-81
2022/03/29 06:14:57;;;;;;;15.15;7.72;;;9.60;56.90;;;;;;5042817;28;20540;-81
2022/03/29 06:17:24;;;;;;;10.40;7.10;;;9.70;56.80;;;;;;5042408;28;20025;-81
2022/03/29 06:19:49;;;;;;;17.67;8.55;;;9.80;56.70;;;;;;5041400;28;20125;-80
2022/03/29 06:22:15;;;;;;;12.15;7.47;;;9.80;56.30;;;;;;5040613;28;20044;-80
2022/03/29 06:24:41;;;;;;;12.77;7.32;;;9.90;56.30;;;;;;5040222;28;20021;-81
2022/03/29 06:27:07;;;;;;;14.55;8.18;;;10.00;56.10;;;;;;5040919;28;20028;-80
2022/03/29 06:29:34;;;;;;;17.88;9.55;;;10.10;55.70;;;;;;5037261;28;20026;-80
2022/03/29 06:32:01;;;;;;;19.35;8.13;;;10.20;55.30;;;;;;5027164;28;20021;-81
2022/03/29 06:34:26;;;;;;;10.48;7.70;;;10.30;55.10;;;;;;5040537;28;20048;-81
2022/03/29 06:36:52;;;;;;;15.05;7.53;;;10.40;54.90;;;;;;5040432;28;20029;-81
2022/03/29 06:39:18;;;;;;;12.15;6.78;;;10.50;54.70;;;;;;5039507;28;20079;-79
2022/03/29 06:41:44;;;;;;;13.95;6.90;;;10.70;54.50;;;;;;5040527;28;20361;-78
2022/03/29 06:44:10;;;;;;;11.60;7.10;;;10.90;54.10;;;;;;5045447;28;20489;-79
2022/03/29 06:46:37;;;;;;;12.00;7.13;;;11.10;53.80;;;;;;5047042;28;20029;-79
2022/03/29 06:49:04;;;;;;;12.82;7.35;;;11.20;53.30;;;;;;5043433;28;20021;-79
2022/03/29 06:51:30;;;;;;;11.38;7.28;;;11.40;52.90;;;;;;5037904;28;20082;-77
2022/03/29 06:53:57;;;;;;;10.05;7.13;;;11.50;52.60;;;;;;5038817;28;20047;-79
2022/03/29 06:56:23;;;;;;;13.07;8.02;;;11.50;52.60;;;;;;5047136;28;20029;-81
2022/03/29 06:58:49;;;;;;;12.20;8.13;;;11.50;52.40;;;;;;5048455;28;20048;-78
2022/03/29 07:01:16;;;;;;;16.80;8.80;;;11.50;52.30;;;;;;5048314;28;20025;-79
2022/03/29 07:03:41;;;;;;;15.63;8.85;;;11.50;52.40;;;;;;5025166;28;20367;-79
2022/03/29 07:06:08;;;;;;;15.15;8.50;;;11.60;52.30;;;;;;5041854;28;20055;-79
2022/03/29 07:08:34;;;;;;;23.85;9.68;;;11.60;52.20;;;;;;5023813;28;20025;-79
2022/03/29 07:11:21;;;;;;;14.05;8.57;;;11.70;52.00;;;;;;5024843;28;20021;-79
2022/03/29 07:13:47;;;;;;;15.10;8.73;;;11.80;51.80;;;;;;5024215;28;20083;-77
2022/03/29 07:16:14;;;;;;;16.23;8.25;;;11.80;51.70;;;;;;5037078;28;20437;-79
2022/03/29 07:18:41;;;;;;;11.35;7.25;;;12.00;51.20;;;;;;5025307;28;20025;-77
2022/03/29 07:21:07;;;;;;;10.60;7.03;;;12.20;51.00;;;;;;5038326;28;20025;-79
2022/03/29 07:23:33;;;;;;;15.52;7.40;;;12.30;50.90;;;;;;5036217;28;20091;-78
2022/03/29 07:25:58;;;;;;;13.38;7.72;;;12.50;50.40;;;;;;5037128;28;20043;-77
2022/03/29 07:28:24;;;;;;;11.02;7.40;;;12.60;49.90;;;;;;5036591;28;20368;-79
2022/03/29 07:30:51;;;;;;;11.07;6.53;;;12.80;50.30;;;;;;5038489;28;20086;-79
2022/03/29 07:33:18;;;;;;;9.65;5.90;;;13.00;49.20;;;;;;5044313;28;20060;-79
2022/03/29 07:35:44;;;;;;;10.32;5.93;;;13.20;48.80;;;;;;5030432;28;20033;-82
2022/03/29 07:38:11;;;;;;;12.45;7.13;;;13.40;48.90;;;;;;5024876;28;20041;-80
2022/03/29 07:40:38;;;;;;;11.98;8.30;;;13.70;47.60;;;;;;5040321;28;20417;-77
2022/03/29 07:43:05;;;;;;;12.05;7.20;;;13.80;47.00;;;;;;5039181;28;20030;-80
2022/03/29 07:45:32;;;;;;;13.23;7.70;;;14.00;46.60;;;;;;5037840;28;20068;-80
2022/03/29 07:47:58;;;;;;;10.95;7.18;;;14.20;46.10;;;;;;5050504;28;20176;-84
2022/03/29 07:50:26;;;;;;;12.25;6.63;;;14.40;45.80;;;;;;5055545;28;20025;-83
2022/03/29 07:52:54;;;;;;;11.85;7.53;;;14.40;45.40;;;;;;5056355;28;20048;-81
2022/03/29 07:55:19;;;;;;;10.15;7.10;;;14.50;45.10;;;;;;5046796;28;20021;-81
2022/03/29 07:57:45;;;;;;;15.18;8.55;;;14.60;44.80;;;;;;5037676;28;20037;-79
2022/03/29 08:00:31;;;;;;;11.38;7.60;;;14.70;44.40;;;;;;5033879;28;20061;-79
2022/03/29 08:03:19;;;;;;;10.25;7.20;;;14.80;44.20;;;;;;5039824;28;20036;-79
2022/03/29 08:05:47;;;;;;;11.85;7.90;;;14.90;44.20;;;;;;5037726;28;20095;-78
2022/03/29 08:08:14;;;;;;;10.50;7.00;;;15.10;43.70;;;;;;5035477;28;20025;-80
2022/03/29 08:10:52;;;;;;;12.18;8.15;;;15.20;43.60;;;;;;5036136;28;20079;-79
2022/03/29 08:13:19;;;;;;;14.93;9.43;;;15.40;43.40;;;;;;5036460;28;20025;-80
2022/03/29 08:15:48;;;;;;;12.80;8.63;;;15.60;42.90;;;;;;5020354;28;20036;-79
2022/03/29 08:18:15;;;;;;;12.27;8.30;;;15.80;42.40;;;;;;5036064;28;20021;-79
2022/03/29 08:20:41;;;;;;;16.25;8.70;;;15.90;42.20;;;;;;5027129;28;20473;-78
2022/03/29 08:23:08;;;;;;;11.63;8.02;;;16.10;41.80;;;;;;5035841;28;20034;-77
2022/03/29 08:25:36;;;;;;;11.45;7.82;;;16.20;41.70;;;;;;5033691;28;20022;-78
2022/03/29 08:28:02;;;;;;;15.73;9.35;;;16.30;41.40;;;;;;5034041;28;20055;-79
2022/03/29 08:30:30;;;;;;;17.38;9.57;;;16.40;41.10;;;;;;5034195;28;20363;-78
2022/03/29 08:32:57;;;;;;;14.45;9.23;;;16.50;40.60;;;;;;5035033;28;20490;-78
2022/03/29 08:35:24;;;;;;;12.00;8.25;;;16.50;40.90;;;;;;5034958;28;20051;-81
2022/03/29 08:37:50;;;;;;;14.30;9.40;;;16.70;40.80;;;;;;5036335;28;20017;-80
2022/03/29 08:40:21;;;;;;;14.57;8.98;;;16.80;40.30;;;;;;5018254;28;20037;-80
2022/03/29 08:42:49;;;;;;;19.03;10.50;;;17.00;40.10;;;;;;5018428;28;20160;-80
2022/03/29 08:45:16;;;;;;;16.85;9.50;;;17.20;39.70;;;;;;5036347;28;20509;-79
2022/03/29 08:47:44;;;;;;;14.48;8.98;;;17.20;39.30;;;;;;5035283;28;20033;-80
2022/03/29 08:50:12;;;;;;;13.65;9.70;;;17.30;39.30;;;;;;5035510;28;20051;-78
2022/03/29 08:52:39;;;;;;;15.45;9.85;;;17.30;39.30;;;;;;5018113;28;20022;-78
2022/03/29 08:55:06;;;;;;;14.35;9.07;;;17.40;39.10;;;;;;5035330;28;20114;-80
2022/03/29 08:57:32;;;;;;;16.52;9.65;;;17.60;39.00;;;;;;5035239;28;20084;-79
2022/03/29 08:59:59;;;;;;;14.85;9.43;;;17.70;38.60;;;;;;5019968;28;20093;-79
2022/03/29 09:02:25;;;;;;;13.05;9.30;;;17.90;38.50;;;;;;5040091;28;20390;-79
2022/03/29 09:05:21;;;;;;;18.80;10.80;;;18.10;38.20;;;;;;5041370;28;20164;-78
2022/03/29 09:07:47;;;;;;;15.23;9.30;;;18.30;38.00;;;;;;5039652;28;20025;-78
2022/03/29 09:10:13;;;;;;;15.68;9.20;;;18.50;37.70;;;;;;5037786;28;20032;-81
2022/03/29 09:12:39;;;;;;;16.35;10.70;;;18.60;37.20;;;;;;5037140;28;20029;-79
2022/03/29 09:15:06;;;;;;;15.98;9.18;;;18.80;37.30;;;;;;5035832;28;20033;-76
2022/03/29 09:17:35;;;;;;;12.90;8.65;;;19.00;37.20;;;;;;5034569;28;20118;-80
2022/03/29 09:20:05;;;;;;;10.55;7.47;;;19.20;37.20;;;;;;5035120;28;20335;-79
2022/03/29 09:22:53;;;;;;;14.70;8.88;;;19.30;37.00;;;;;;5035169;28;20065;-78
2022/03/29 09:25:38;;;;;;;13.50;10.00;;;19.30;36.30;;;;;;5035700;28;20080;-78
2022/03/29 09:28:12;;;;;;;17.10;10.38;;;19.40;36.20;;;;;;5033068;28;20030;-80
2022/03/29 09:30:49;;;;;;;13.90;9.85;;;19.30;35.90;;;;;;5031970;28;20018;-83
2022/03/29 09:33:20;;;;;;;21.17;11.10;;;19.30;36.00;;;;;;5023559;28;20030;-78
2022/03/29 09:36:03;;;;;;;17.42;10.63;;;19.30;35.40;;;;;;5043184;28;20048;-79
2022/03/29 09:38:32;;;;;;;17.42;10.45;;;19.30;35.70;;;;;;5037610;28;20102;-79
2022/03/29 09:40:59;;;;;;;13.30;9.25;;;19.30;36.00;;;;;;5031701;28;20108;-78
2022/03/29 09:43:28;;;;;;;13.43;9.98;;;19.30;36.00;;;;;;5038306;28;20113;-79
2022/03/29 09:46:01;;;;;;;12.90;9.45;;;19.20;35.80;;;;;;5038336;28;20025;-81
2022/03/29 09:48:31;;;;;;;14.98;9.82;;;19.10;36.00;;;;;;5037969;28;20022;-77
2022/03/29 09:51:19;;;;;;;14.90;9.75;;;19.00;36.20;;;;;;5039538;28;20025;-79
2022/03/29 09:53:51;;;;;;;18.05;10.80;;;19.10;36.40;;;;;;5040700;28;20159;-79
2022/03/29 09:56:24;;;;;;;;;;;19.10;36.40;;;;;;5039682;28;20029;-80
2022/03/29 09:59:08;;;;;;;13.50;9.73;;;19.10;36.40;;;;;;5040299;28;19905;-78
2022/03/29 10:01:47;;;;;;;20.92;10.50;;;19.30;36.20;;;;;;5034229;28;20022;-78
2022/03/29 10:04:17;;;;;;;15.80;10.40;;;19.40;36.00;;;;;;5001970;28;20394;-77
2022/03/29 10:06:48;;;;;;;14.35;9.07;;;19.40;36.10;;;;;;5017261;28;20025;-79
2022/03/29 10:09:27;;;;;;;14.70;10.57;;;19.60;36.20;;;;;;4999542;28;20041;-79
2022/03/29 10:11:57;;;;;;;15.25;11.07;;;19.80;35.80;;;;;;5018057;28;20030;-81
2022/03/29 10:14:25;;;;;;;14.68;10.57;;;20.00;35.90;;;;;;5019150;28;20153;-80
2022/03/29 10:16:56;;;;;;;13.52;9.57;;;20.20;35.70;;;;;;5038678;28;20076;-79
2022/03/29 10:19:22;;;;;;;15.13;10.77;;;20.40;35.70;;;;;;5034755;28;20025;-80
2022/03/29 10:21:48;;;;;;;14.15;9.70;;;20.60;35.20;;;;;;5042149;28;20085;-82
2022/03/29 10:24:16;;;;;;;14.65;10.00;;;20.70;35.30;;;;;;5026671;28;20104;-80
2022/03/29 10:26:43;;;;;;;13.57;9.13;;;20.70;35.10;;;;;;5040805;28;20025;-81
2022/03/29 10:29:10;;;;;;;12.52;8.98;;;20.60;35.10;;;;;;5020811;28;20087;-79
2022/03/29 10:31:40;;;;;;;12.70;9.65;;;20.70;35.40;;;;;;5035505;28;20026;-80
2022/03/29 10:34:21;;;;;;;11.13;8.73;;;20.70;35.30;;;;;;5000758;28;20018;-79
2022/03/29 10:37:08;;;;;;;14.80;10.98;;;20.70;35.30;;;;;;5019340;28;20026;-78
2022/03/29 10:40:01;;;;;;;14.18;10.55;;;20.50;34.70;;;;;;5018639;28;20033;-80
2022/03/29 10:42:36;;;;;;;17.98;10.52;;;20.30;35.00;;;;;;5038433;28;20371;-79
2022/03/29 10:45:19;;;;;;;14.57;9.55;;;20.10;35.10;;;;;;5020414;28;20026;-79
2022/03/29 10:48:04;;;;;;;;;;;20.10;35.20;;;;;;5018363;28;20064;-79
2022/03/29 10:50:57;;;;;;;14.30;10.85;;;19.90;34.80;;;;;;5019786;28;19966;-85
2022/03/29 10:53:27;;;;;;;15.52;10.20;;;19.80;34.60;;;;;;5044075;28;20085;-81
2022/03/29 10:56:15;;;;;;;12.88;9.98;;;19.80;34.60;;;;;;5026475;28;20029;-82
2022/03/29 10:59:06;;;;;;;17.67;10.80;;;19.70;34.70;;;;;;5044045;28;20036;-83
2022/03/29 11:01:33;;;;;;;13.93;9.93;;;19.70;34.80;;;;;;5045304;28;20030;-81
2022/03/29 11:04:04;;;;;;;14.48;10.55;;;19.80;35.20;;;;;;5050356;28;20030;-83
2022/03/29 11:06:30;;;;;;;20.33;10.65;;;20.00;34.80;;;;;;5048981;28;20152;-83
2022/03/29 11:09:23;;;;;;;16.75;10.25;;;20.10;34.40;;;;;;5052809;28;20089;-81
2022/03/29 11:11:51;;;;;;;14.57;10.00;;;20.00;34.60;;;;;;5050485;28;20056;-79
2022/03/29 11:14:29;;;;;;;17.90;10.93;;;19.70;34.80;;;;;;5057799;28;20014;-80
2022/03/29 11:17:16;;;;;;;14.32;10.30;;;19.60;35.20;;;;;;5051493;28;20026;-80
2022/03/29 11:19:53;;;;;;;18.73;10.60;;;19.60;35.60;;;;;;5048031;28;20061;-80
2022/03/29 11:22:22;;;;;;;16.60;10.30;;;19.70;35.30;;;;;;5033203;28;20028;-77
2022/03/29 11:24:52;;;;;;;21.58;11.38;;;19.80;35.10;;;;;;5046277;28;20052;-81
2022/03/29 11:27:22;;;;;;;18.23;10.48;;;19.90;34.90;;;;;;5044009;28;20030;-82
2022/03/29 11:29:52;;;;;;;18.75;11.07;;;19.90;34.70;;;;;;5044220;28;20401;-82
2022/03/29 11:32:18;;;;;;;21.20;10.50;;;19.90;34.70;;;;;;5039463;28;20017;-81
2022/03/29 11:34:45;;;;;;;17.63;10.82;;;20.00;34.40;;;;;;5042833;28;20025;-81
2022/03/29 11:37:38;;;;;;;12.40;9.02;;;20.10;34.50;;;;;;5045840;28;20013;-81
2022/03/29 11:40:15;;;;;;;17.00;9.95;;;20.30;33.20;;;;;;5051876;28;20144;-81
2022/03/29 11:43:05;;;;;;;18.15;10.77;;;20.30;33.30;;;;;;5040666;28;20120;-81
2022/03/29 11:45:39;;;;;;;13.98;9.23;;;20.30;33.40;;;;;;5041810;28;20022;-81
2022/03/29 11:48:11;;;;;;;15.65;9.63;;;20.30;33.90;;;;;;5040761;28;20025;-81
2022/03/29 11:50:39;;;;;;;18.48;10.23;;;20.30;33.00;;;;;;5040214;28;20021;-82
2022/03/29 11:53:35;;;;;;;18.88;10.25;;;20.40;33.00;;;;;;5040911;28;20130;-80
2022/03/29 11:56:07;;;;;;;21.35;10.38;;;20.40;33.20;;;;;;5046428;28;20069;-82
2022/03/29 11:58:51;;;;;;;15.18;9.68;;;20.20;33.30;;;;;;5047078;28;20037;-81
2022/03/29 12:01:19;;;;;;;15.43;10.05;;;20.20;34.00;;;;;;5044060;28;20029;-82
2022/03/29 12:03:54;;;;;;;14.48;8.75;;;20.10;33.70;;;;;;5044479;28;20139;-81
2022/03/29 12:06:25;;;;;;;18.45;8.57;;;20.10;34.00;;;;;;5023933;28;20037;-81
2022/03/29 12:09:03;;;;;;;16.00;8.05;;;20.10;32.60;;;;;;5041549;28;20200;-80
2022/03/29 12:11:40;;;;;;;12.20;7.97;;;20.00;32.70;;;;;;5021992;28;20449;-80
2022/03/29 12:14:17;;;;;;;18.88;8.23;;;19.90;32.70;;;;;;5040738;28;20024;-79
2022/03/29 12:16:54;;;;;;;12.65;8.55;;;19.80;32.60;;;;;;5021531;28;20033;-80
2022/03/29 12:19:27;;;;;;;18.70;8.25;;;19.90;32.80;;;;;;5039848;28;20022;-82
2022/03/29 12:22:00;;;;;;;14.20;8.57;;;19.90;32.80;;;;;;5024800;28;20097;-81
2022/03/29 12:24:34;;;;;;;15.90;8.65;;;20.10;32.80;;;;;;5032723;28;20026;-81
2022/03/29 12:27:06;;;;;;;11.80;7.80;;;20.20;32.30;;;;;;5048649;28;20033;-82
2022/03/29 12:29:34;;;;;;;16.08;8.57;;;20.30;32.30;;;;;;5048342;28;20025;-81
2022/03/29 12:32:02;;;;;;;13.40;8.77;;;20.40;32.60;;;;;;5042432;28;20021;-81
2022/03/29 12:34:30;;;;;;;12.45;9.23;;;20.50;32.20;;;;;;5051257;28;20021;-81
2022/03/29 12:37:03;;;;;;;14.23;9.45;;;20.50;32.10;;;;;;5050505;28;20040;-81
2022/03/29 12:39:40;;;;;;;11.98;8.40;;;20.60;31.80;;;;;;5044515;28;20398;-82
2022/03/29 12:42:16;;;;;;;17.35;9.68;;;20.70;32.00;;;;;;5041526;28;20068;-82
2022/03/29 12:44:54;;;;;;;13.45;8.95;;;20.80;32.10;;;;;;5040317;28;20025;-81
2022/03/29 12:47:20;;;;;;;10.57;7.95;;;20.80;32.00;;;;;;5039128;28;20128;-82
2022/03/29 12:49:49;;;;;;;16.08;9.77;;;20.90;32.20;;;;;;5040081;28;20335;-82
2022/03/29 12:52:16;;;;;;;23.17;10.25;;;21.10;31.80;;;;;;5055238;28;20028;-82
2022/03/29 12:54:47;;;;;;;18.58;8.98;;;21.10;31.70;;;;;;5056307;28;20018;-81